createdAt,value
2023-01-25T00:00:43.828Z,7.15
2023-01-25T00:01:45.305Z,7.14
2023-01-25T00:02:46.818Z,7.16
2023-01-25T00:03:48.311Z,7.09
2023-01-25T00:04:49.857Z,7.10
2023-01-25T00:05:58.140Z,7.08
2023-01-25T00:06:59.656Z,7.12
2023-01-25T00:08:01.128Z,7.15
2023-01-25T00:09:02.817Z,7.18
2023-01-25T00:10:04.434Z,7.21
2023-01-25T00:11:05.937Z,7.21
2023-01-25T00:12:07.456Z,7.23
2023-01-25T00:13:08.939Z,7.26
2023-01-25T00:14:11.107Z,7.27
2023-01-25T00:15:12.704Z,7.26
2023-01-25T00:16:14.259Z,7.26
2023-01-25T00:17:15.862Z,7.26
2023-01-25T00:18:17.321Z,7.22
2023-01-25T00:19:18.858Z,7.15
2023-01-25T00:20:20.342Z,7.13
2023-01-25T00:21:22.566Z,7.15
2023-01-25T00:22:24.147Z,7.11
2023-01-25T00:23:25.602Z,7.07
2023-01-25T00:24:27.101Z,7.08
2023-01-25T00:25:28.688Z,7.11
2023-01-25T00:26:30.472Z,7.09
2023-01-25T00:27:31.991Z,7.13
2023-01-25T00:28:33.508Z,7.16
2023-01-25T00:29:35.039Z,7.17
2023-01-25T00:30:36.495Z,7.17
2023-01-25T00:31:41.269Z,7.17
2023-01-25T00:32:49.049Z,7.21
2023-01-25T00:33:51.299Z,7.19
2023-01-25T00:34:52.870Z,7.13
2023-01-25T00:35:56.467Z,7.13
2023-01-25T00:36:58.424Z,7.14
2023-01-25T00:38:01.140Z,7.17
2023-01-25T00:39:02.676Z,7.13
2023-01-25T00:40:04.762Z,7.15
2023-01-25T00:41:06.314Z,7.17
2023-01-25T00:42:11.914Z,7.20
2023-01-25T00:43:14.656Z,7.18
2023-01-25T00:44:16.112Z,7.19
2023-01-25T00:45:17.724Z,7.20
2023-01-25T00:46:19.290Z,7.19
2023-01-25T00:47:20.864Z,7.14
2023-01-25T00:48:22.416Z,7.17
2023-01-25T00:49:24.620Z,7.19
2023-01-25T00:50:26.125Z,7.21
2023-01-25T00:51:27.656Z,7.20
2023-01-25T00:52:29.127Z,7.17
2023-01-25T00:53:30.715Z,7.19
2023-01-25T00:54:32.229Z,7.19
2023-01-25T00:55:33.692Z,7.19
2023-01-25T00:56:35.182Z,7.16
2023-01-25T00:57:36.694Z,7.10
2023-01-25T00:58:38.603Z,7.06
2023-01-25T00:59:44.712Z,7.07
2023-01-25T01:00:48.023Z,7.07
2023-01-25T01:01:49.612Z,7.05
2023-01-25T01:02:52.564Z,7.02
2023-01-25T01:03:55.328Z,7.01
2023-01-25T01:04:56.911Z,7.04
2023-01-25T01:05:59.244Z,7.07
2023-01-25T01:07:00.756Z,7.06
2023-01-25T01:08:02.451Z,7.10
2023-01-25T01:09:04.043Z,7.07
2023-01-25T01:10:05.853Z,7.08
2023-01-25T01:11:08.381Z,7.11
2023-01-25T01:12:10.569Z,7.10
2023-01-25T01:13:12.101Z,7.15
2023-01-25T01:14:15.254Z,7.16
2023-01-25T01:15:16.968Z,7.15
2023-01-25T01:16:18.608Z,7.17
2023-01-25T01:17:20.063Z,7.15
2023-01-25T01:18:22.424Z,7.14
2023-01-25T01:19:23.978Z,7.10
2023-01-25T01:20:25.436Z,7.05
2023-01-25T01:21:27.176Z,7.02
2023-01-25T01:22:28.657Z,6.99
2023-01-25T01:23:30.253Z,6.96
2023-01-25T01:24:31.814Z,6.96
2023-01-25T01:25:33.353Z,6.96
2023-01-25T01:26:34.990Z,6.99
2023-01-25T01:27:36.448Z,7.03
2023-01-25T01:28:41.048Z,7.05
2023-01-25T01:29:42.564Z,7.06
2023-01-25T01:30:44.056Z,7.08
2023-01-25T01:31:45.778Z,7.06
2023-01-25T01:32:53.357Z,7.01
2023-01-25T01:33:55.425Z,6.95
2023-01-25T01:34:56.913Z,7.00
2023-01-25T01:35:58.397Z,7.06
2023-01-25T01:37:00.646Z,7.08
2023-01-25T01:38:02.155Z,7.09
2023-01-25T01:39:03.739Z,7.14
2023-01-25T01:40:05.464Z,7.12
2023-01-25T01:41:06.976Z,7.15
2023-01-25T01:42:08.844Z,7.16
2023-01-25T01:43:18.544Z,7.13
2023-01-25T01:44:22.501Z,7.15
2023-01-25T01:45:44.007Z,7.17
2023-01-25T01:46:53.257Z,7.20
2023-01-25T01:47:56.221Z,7.21
2023-01-25T01:49:10.644Z,7.15
2023-01-25T01:50:19.325Z,7.12
2023-01-25T01:51:26.662Z,7.10
2023-01-25T01:52:28.944Z,7.10
2023-01-25T01:53:31.311Z,7.12
2023-01-25T01:55:11.801Z,7.09
2023-01-25T01:56:14.418Z,7.13
2023-01-25T01:57:20.510Z,7.14
2023-01-25T01:58:22.915Z,7.10
2023-01-25T01:59:26.253Z,7.09
2023-01-25T02:00:29.540Z,7.11
2023-01-25T02:01:31.300Z,7.13
2023-01-25T02:02:33.346Z,7.16
2023-01-25T02:03:34.937Z,7.17
2023-01-25T02:04:36.716Z,7.16
2023-01-25T02:05:46.608Z,7.18
2023-01-25T02:06:53.118Z,7.20
2023-01-25T02:07:55.021Z,7.22
2023-01-25T02:08:57.143Z,7.18
2023-01-25T02:09:59.038Z,7.10
2023-01-25T02:11:00.615Z,7.16
2023-01-25T02:12:02.194Z,7.14
2023-01-25T02:13:05.800Z,7.15
2023-01-25T02:14:07.413Z,7.17
2023-01-25T02:15:09.693Z,7.17
2023-01-25T02:16:15.418Z,7.12
2023-01-25T02:17:18.286Z,7.08
2023-01-25T02:18:19.813Z,7.08
2023-01-25T02:19:25.839Z,7.07
2023-01-25T02:20:36.525Z,7.08
2023-01-25T02:21:40.341Z,7.09
2023-01-25T02:22:47.500Z,7.09
2023-01-25T02:23:56.815Z,7.12
2023-01-25T02:25:08.503Z,7.07
2023-01-25T02:26:10.268Z,7.04
2023-01-25T02:27:11.760Z,7.09
2023-01-25T02:28:21.829Z,7.11
2023-01-25T02:29:24.467Z,7.12
2023-01-25T02:30:27.092Z,7.14
2023-01-25T02:31:28.621Z,7.16
2023-01-25T02:32:30.108Z,7.16
2023-01-25T02:33:32.046Z,7.19
2023-01-25T02:34:33.572Z,7.22
2023-01-25T02:35:56.215Z,7.21
2023-01-25T02:36:57.739Z,7.24
2023-01-25T02:37:59.227Z,7.27
2023-01-25T02:39:05.531Z,7.28
2023-01-25T02:40:07.282Z,7.28
2023-01-25T02:41:27.485Z,7.29
2023-01-25T02:42:32.069Z,7.26
2023-01-25T02:43:36.221Z,7.26
2023-01-25T02:44:38.743Z,7.26
2023-01-25T02:45:40.261Z,7.26
2023-01-25T02:46:41.865Z,7.24
2023-01-25T02:47:45.001Z,7.26
2023-01-25T02:48:46.637Z,7.29
2023-01-25T02:49:48.163Z,7.23
2023-01-25T02:50:49.704Z,7.18
2023-01-25T02:51:55.751Z,7.17
2023-01-25T02:52:57.389Z,7.17
2023-01-25T02:53:58.936Z,7.14
2023-01-25T02:55:00.548Z,7.17
2023-01-25T02:56:02.093Z,7.20
2023-01-25T02:57:05.449Z,7.20
2023-01-25T02:58:15.193Z,7.19
2023-01-25T02:59:18.903Z,7.16
2023-01-25T03:00:25.046Z,7.18
2023-01-25T03:01:26.545Z,7.18
2023-01-25T03:02:28.937Z,7.21
2023-01-25T03:03:30.453Z,7.21
2023-01-25T03:04:32.571Z,7.23
2023-01-25T03:05:34.677Z,7.20
2023-01-25T03:06:36.430Z,7.19
2023-01-25T03:07:37.933Z,7.20
2023-01-25T03:08:39.828Z,7.21
2023-01-25T03:09:41.331Z,7.23
2023-01-25T03:10:43.279Z,7.23
2023-01-25T03:11:45.168Z,7.22
2023-01-25T03:12:46.672Z,7.16
2023-01-25T03:13:48.139Z,7.16
2023-01-25T03:14:49.772Z,7.17
2023-01-25T03:15:53.331Z,7.15
2023-01-25T03:16:54.965Z,7.17
2023-01-25T03:17:58.425Z,7.18
2023-01-25T03:18:59.927Z,7.19
2023-01-25T03:20:02.358Z,7.17
2023-01-25T03:21:10.322Z,7.15
2023-01-25T03:22:11.865Z,7.09
2023-01-25T03:23:13.373Z,7.13
2023-01-25T03:24:14.864Z,7.14
2023-01-25T03:25:20.551Z,7.12
2023-01-25T03:26:30.122Z,7.09
2023-01-25T03:27:57.914Z,7.15
2023-01-25T03:29:01.452Z,7.13
2023-01-25T03:30:03.334Z,7.15
2023-01-25T03:31:08.109Z,7.13
2023-01-25T03:32:09.840Z,7.15
2023-01-25T03:33:11.468Z,7.17
2023-01-25T03:34:13.497Z,7.20
2023-01-25T03:35:16.815Z,7.21
2023-01-25T03:36:18.504Z,7.23
2023-01-25T03:37:20.497Z,7.25
2023-01-25T03:38:23.305Z,7.27
2023-01-25T03:39:24.816Z,7.27
2023-01-25T03:40:26.329Z,7.25
2023-01-25T03:41:27.922Z,7.22
2023-01-25T03:42:32.588Z,7.23
2023-01-25T03:43:34.144Z,7.24
2023-01-25T03:44:36.372Z,7.22
2023-01-25T03:45:38.860Z,7.23
2023-01-25T03:46:40.901Z,7.20
2023-01-25T03:47:42.455Z,7.17
2023-01-25T03:48:44.744Z,7.20
2023-01-25T03:49:46.394Z,7.22
2023-01-25T03:50:52.141Z,7.20
2023-01-25T03:51:54.800Z,7.20
2023-01-25T03:53:07.298Z,7.22
2023-01-25T03:54:11.437Z,7.23
2023-01-25T03:55:13.007Z,7.24
2023-01-25T03:56:20.287Z,7.20
2023-01-25T03:57:32.519Z,7.17
2023-01-25T03:58:38.396Z,7.19
2023-01-25T03:59:40.210Z,7.18
2023-01-25T04:00:42.071Z,7.14
2023-01-25T04:01:43.580Z,7.16
2023-01-25T04:02:45.078Z,7.11
2023-01-25T04:03:50.528Z,7.04
2023-01-25T04:04:52.484Z,7.06
2023-01-25T04:05:55.967Z,7.09
2023-01-25T04:06:57.482Z,7.13
2023-01-25T04:07:59.666Z,7.15
2023-01-25T04:09:10.832Z,7.17
2023-01-25T04:10:15.656Z,7.19
2023-01-25T04:11:20.498Z,7.20
2023-01-25T04:12:23.408Z,7.21
2023-01-25T04:13:24.940Z,7.24
2023-01-25T04:14:43.295Z,7.24
2023-01-25T04:15:46.951Z,7.27
2023-01-25T04:16:58.694Z,7.29
2023-01-25T04:18:14.611Z,7.31
2023-01-25T04:19:16.436Z,7.32
2023-01-25T04:20:18.089Z,7.33
2023-01-25T04:21:19.889Z,7.34
2023-01-25T04:22:21.531Z,7.34
2023-01-25T04:23:25.772Z,7.35
2023-01-25T04:24:27.632Z,7.36
2023-01-25T04:25:29.215Z,7.31
2023-01-25T04:26:32.799Z,7.27
2023-01-25T04:27:35.578Z,7.23
2023-01-25T04:28:46.879Z,7.23
2023-01-25T04:29:48.435Z,7.23
2023-01-25T04:30:54.461Z,7.22
2023-01-25T04:31:57.471Z,7.24
2023-01-25T04:33:02.961Z,7.21
2023-01-25T04:34:05.650Z,7.23
2023-01-25T04:35:07.687Z,7.20
2023-01-25T04:36:10.643Z,7.13
2023-01-25T04:37:12.693Z,7.14
2023-01-25T04:38:24.641Z,7.14
2023-01-25T04:39:26.211Z,7.14
2023-01-25T04:40:27.821Z,7.14
2023-01-25T04:41:30.819Z,7.12
2023-01-25T04:42:32.680Z,7.14
2023-01-25T04:43:34.245Z,7.15
2023-01-25T04:44:40.795Z,7.15
2023-01-25T04:45:42.996Z,7.16
2023-01-25T04:46:50.793Z,7.15
2023-01-25T04:47:56.740Z,7.14
2023-01-25T04:48:58.234Z,7.10
2023-01-25T04:49:59.986Z,7.09
2023-01-25T04:51:04.744Z,7.07
2023-01-25T04:52:07.380Z,7.09
2023-01-25T04:53:09.459Z,7.01
2023-01-25T04:54:11.086Z,7.10
2023-01-25T04:55:12.716Z,7.13
2023-01-25T04:56:17.467Z,7.09
2023-01-25T04:57:28.435Z,7.05
2023-01-25T04:58:29.983Z,7.07
2023-01-25T04:59:31.483Z,7.04
2023-01-25T05:00:32.965Z,7.05
2023-01-25T05:01:35.885Z,7.09
2023-01-25T05:02:40.737Z,7.14
2023-01-25T05:03:42.617Z,7.13
2023-01-25T05:04:53.518Z,7.12
2023-01-25T05:05:55.856Z,7.13
2023-01-25T05:06:59.342Z,7.09
2023-01-25T05:08:01.571Z,7.11
2023-01-25T05:09:03.963Z,7.11
2023-01-25T05:10:06.452Z,7.14
2023-01-25T05:11:08.286Z,7.15
2023-01-25T05:12:30.219Z,7.17
2023-01-25T05:13:36.456Z,7.16
2023-01-25T05:15:07.695Z,7.17
2023-01-25T05:16:09.879Z,7.19
2023-01-25T05:17:12.495Z,7.21
2023-01-25T05:18:13.978Z,7.20
2023-01-25T05:19:15.594Z,7.18
2023-01-25T05:20:24.436Z,7.11
2023-01-25T05:21:45.148Z,7.07
2023-01-25T05:22:48.233Z,7.07
2023-01-25T05:23:50.275Z,7.08
2023-01-25T05:24:52.697Z,7.10
2023-01-25T05:26:13.042Z,7.12
2023-01-25T05:27:16.475Z,7.15
2023-01-25T05:28:30.131Z,7.12
2023-01-25T05:29:46.255Z,7.11
2023-01-25T05:30:47.835Z,7.12
2023-01-25T05:31:59.121Z,7.16
2023-01-25T05:33:00.864Z,7.12
2023-01-25T05:34:02.377Z,7.09
2023-01-25T05:35:04.181Z,7.12
2023-01-25T05:36:05.830Z,7.10
2023-01-25T05:37:10.664Z,7.06
2023-01-25T05:38:15.765Z,7.09
2023-01-25T05:39:17.867Z,7.10
2023-01-25T05:40:21.763Z,7.12
2023-01-25T05:41:26.097Z,7.07
2023-01-25T05:42:27.803Z,7.07
2023-01-25T05:43:29.275Z,7.08
2023-01-25T05:44:31.303Z,7.08
2023-01-25T05:45:32.790Z,7.08
2023-01-25T05:46:34.876Z,7.09
2023-01-25T05:47:36.559Z,7.09
2023-01-25T05:48:38.062Z,7.09
2023-01-25T05:49:39.545Z,7.10
2023-01-25T05:50:43.114Z,7.13
2023-01-25T05:51:49.133Z,7.14
2023-01-25T05:52:50.649Z,7.13
2023-01-25T05:53:54.541Z,7.06
2023-01-25T05:54:56.073Z,7.08
2023-01-25T05:56:03.908Z,7.03
2023-01-25T05:57:05.911Z,6.98
2023-01-25T05:58:08.910Z,6.86
2023-01-25T05:59:10.759Z,6.92
2023-01-25T06:00:12.481Z,6.90
2023-01-25T06:01:16.816Z,6.85
2023-01-25T06:02:26.529Z,6.83
2023-01-25T06:03:28.327Z,6.83
2023-01-25T06:04:30.434Z,6.79
2023-01-25T06:05:31.944Z,6.77
2023-01-25T06:06:33.462Z,6.73
2023-01-25T06:07:38.441Z,6.68
2023-01-25T06:08:39.972Z,6.72
2023-01-25T06:09:41.543Z,6.77
2023-01-25T06:10:43.062Z,6.75
2023-01-25T06:11:45.212Z,6.74
2023-01-25T06:12:46.772Z,6.77
2023-01-25T06:13:48.764Z,6.81
2023-01-25T06:14:50.317Z,6.78
2023-01-25T06:15:55.194Z,6.81
2023-01-25T06:17:15.237Z,6.85
2023-01-25T06:18:32.934Z,6.87
2023-01-25T06:19:52.648Z,6.88
2023-01-25T06:21:04.344Z,6.88
2023-01-25T06:22:10.819Z,6.88
2023-01-25T06:23:12.380Z,6.86
2023-01-25T06:24:13.897Z,6.84
2023-01-25T06:25:15.432Z,6.86
2023-01-25T06:26:16.943Z,6.84
2023-01-25T06:27:18.439Z,6.86
2023-01-25T06:28:19.974Z,6.90
2023-01-25T06:29:21.449Z,6.93
2023-01-25T06:30:22.897Z,6.94
2023-01-25T06:31:24.504Z,6.92
2023-01-25T06:32:27.285Z,6.92
2023-01-25T06:33:28.767Z,6.94
2023-01-25T06:34:30.355Z,6.96
2023-01-25T06:35:32.702Z,6.93
2023-01-25T06:36:34.249Z,6.95
2023-01-25T06:37:35.762Z,6.90
2023-01-25T06:38:37.298Z,6.90
2023-01-25T06:39:38.757Z,6.93
2023-01-25T06:40:40.244Z,6.94
2023-01-25T06:41:41.759Z,6.89
2023-01-25T06:42:43.416Z,6.86
2023-01-25T06:43:44.953Z,6.79
2023-01-25T06:44:46.395Z,6.83
2023-01-25T06:45:47.882Z,6.86
2023-01-25T06:46:49.469Z,6.81
2023-01-25T06:47:52.169Z,6.82
2023-01-25T06:48:53.940Z,6.81
2023-01-25T06:49:55.443Z,6.86
2023-01-25T06:51:03.290Z,6.88
2023-01-25T06:52:04.788Z,6.92
2023-01-25T06:53:06.336Z,6.95
2023-01-25T06:54:07.816Z,6.97
2023-01-25T06:55:13.775Z,7.01
2023-01-25T06:56:17.589Z,6.98
2023-01-25T06:57:19.043Z,7.01
2023-01-25T06:58:20.543Z,7.03
2023-01-25T06:59:22.090Z,7.03
2023-01-25T07:00:23.684Z,7.05
2023-01-25T07:01:30.290Z,7.06
2023-01-25T07:02:31.974Z,7.08
2023-01-25T07:03:33.576Z,7.06
2023-01-25T07:04:35.028Z,7.04
2023-01-25T07:05:36.519Z,7.00
2023-01-25T07:06:38.027Z,6.95
2023-01-25T07:07:39.794Z,6.96
2023-01-25T07:08:41.272Z,6.96
2023-01-25T07:09:42.739Z,6.95
2023-01-25T07:10:44.276Z,6.96
2023-01-25T07:11:45.808Z,6.96
2023-01-25T07:12:47.262Z,6.89
2023-01-25T07:13:48.892Z,6.84
2023-01-25T07:14:50.695Z,6.83
2023-01-25T07:16:02.383Z,6.79
2023-01-25T07:17:04.125Z,6.81
2023-01-25T07:18:15.857Z,6.79
2023-01-25T07:19:17.961Z,6.82
2023-01-25T07:20:19.516Z,6.83
2023-01-25T07:21:22.152Z,6.85
2023-01-25T07:22:23.647Z,6.88
2023-01-25T07:23:27.070Z,6.87
2023-01-25T07:24:29.732Z,6.89
2023-01-25T07:25:31.231Z,6.89
2023-01-25T07:26:32.811Z,6.81
2023-01-25T07:27:35.102Z,6.87
2023-01-25T07:28:36.563Z,6.88
2023-01-25T07:29:38.153Z,6.88
2023-01-25T07:30:39.855Z,6.91
2023-01-25T07:31:44.152Z,6.92
2023-01-25T07:32:45.665Z,6.93
2023-01-25T07:33:53.699Z,6.94
2023-01-25T07:34:55.190Z,6.94
2023-01-25T07:35:59.812Z,6.95
2023-01-25T07:37:01.273Z,6.95
2023-01-25T07:38:02.924Z,6.96
2023-01-25T07:39:04.655Z,6.96
2023-01-25T07:40:06.426Z,6.96
2023-01-25T07:41:07.895Z,6.94
2023-01-25T07:42:09.394Z,6.95
2023-01-25T07:43:11.250Z,6.93
2023-01-25T07:44:12.973Z,6.91
2023-01-25T07:45:30.230Z,6.90
2023-01-25T07:46:31.917Z,6.86
2023-01-25T07:47:33.475Z,6.86
2023-01-25T07:48:34.989Z,6.85
2023-01-25T07:49:36.512Z,6.83
2023-01-25T07:50:39.505Z,6.77
2023-01-25T07:51:41.024Z,6.79
2023-01-25T07:52:42.471Z,6.79
2023-01-25T07:53:43.943Z,6.76
2023-01-25T07:54:48.352Z,6.73
2023-01-25T07:55:50.612Z,6.73
2023-01-25T07:56:52.092Z,6.70
2023-01-25T07:57:56.700Z,6.65
2023-01-25T07:58:58.653Z,6.68
2023-01-25T08:00:00.170Z,6.70
2023-01-25T08:01:11.501Z,6.71
2023-01-25T08:02:13.021Z,6.71
2023-01-25T08:03:15.557Z,6.74
2023-01-25T08:04:17.055Z,6.77
2023-01-25T08:05:18.865Z,6.81
2023-01-25T08:06:39.331Z,6.79
2023-01-25T08:07:41.031Z,6.78
2023-01-25T08:08:45.882Z,6.70
2023-01-25T08:09:47.359Z,6.70
2023-01-25T08:10:48.833Z,6.71
2023-01-25T08:11:50.615Z,6.69
2023-01-25T08:12:52.089Z,6.63
2023-01-25T08:13:53.608Z,6.68
2023-01-25T08:14:55.073Z,6.71
2023-01-25T08:15:56.545Z,6.72
2023-01-25T08:16:58.041Z,6.75
2023-01-25T08:17:59.922Z,6.74
2023-01-25T08:19:01.737Z,6.74
2023-01-25T08:20:04.479Z,6.76
2023-01-25T08:21:06.139Z,6.76
2023-01-25T08:22:08.105Z,6.79
2023-01-25T08:23:09.604Z,6.83
2023-01-25T08:24:11.289Z,6.85
2023-01-25T08:25:12.849Z,6.87
2023-01-25T08:26:15.285Z,6.89
2023-01-25T08:27:16.731Z,6.89
2023-01-25T08:28:18.244Z,6.85
2023-01-25T08:29:19.842Z,6.81
2023-01-25T08:30:21.311Z,6.79
2023-01-25T08:31:24.040Z,6.78
2023-01-25T08:32:25.540Z,6.83
2023-01-25T08:33:26.989Z,6.78
2023-01-25T08:34:31.284Z,6.74
2023-01-25T08:35:32.736Z,6.75
2023-01-25T08:36:34.297Z,6.75
2023-01-25T08:37:35.777Z,6.73
2023-01-25T08:38:37.475Z,6.73
2023-01-25T08:39:38.975Z,6.76
2023-01-25T08:40:40.424Z,6.77
2023-01-25T08:41:42.624Z,6.78
2023-01-25T08:42:44.151Z,6.77
2023-01-25T08:43:45.749Z,6.78
2023-01-25T08:44:47.215Z,6.80
2023-01-25T08:45:55.776Z,6.79
2023-01-25T08:46:57.292Z,6.80
2023-01-25T08:47:58.789Z,6.72
2023-01-25T08:49:01.142Z,6.75
2023-01-25T08:50:02.749Z,6.76
2023-01-25T08:51:04.282Z,6.77
2023-01-25T08:52:05.795Z,6.79
2023-01-25T08:53:07.235Z,6.79
2023-01-25T08:54:10.400Z,6.82
2023-01-25T08:55:11.949Z,6.78
2023-01-25T08:56:14.051Z,6.72
2023-01-25T08:57:15.506Z,6.76
2023-01-25T08:58:19.710Z,6.77
2023-01-25T08:59:21.185Z,6.77
2023-01-25T09:00:23.255Z,6.82
2023-01-25T09:01:24.770Z,6.85
2023-01-25T09:02:26.223Z,6.87
2023-01-25T09:03:28.166Z,6.87
2023-01-25T09:04:29.776Z,6.86
2023-01-25T09:05:31.281Z,6.86
2023-01-25T09:06:32.834Z,6.78
2023-01-25T09:07:38.467Z,6.81
2023-01-25T09:08:40.066Z,6.84
2023-01-25T09:09:41.569Z,6.87
2023-01-25T09:10:43.140Z,6.86
2023-01-25T09:11:44.577Z,6.86
2023-01-25T09:12:46.188Z,6.86
2023-01-25T09:13:48.823Z,6.85
2023-01-25T09:14:50.299Z,6.83
2023-01-25T09:15:51.868Z,6.83
2023-01-25T09:16:53.339Z,6.84
2023-01-25T09:17:55.029Z,6.84
2023-01-25T09:18:56.721Z,6.83
2023-01-25T09:19:58.282Z,6.83
2023-01-25T09:21:00.102Z,6.85
2023-01-25T09:22:02.184Z,6.88
2023-01-25T09:23:03.648Z,6.90
2023-01-25T09:24:06.989Z,6.85
2023-01-25T09:25:09.236Z,6.87
2023-01-25T09:26:11.099Z,6.85
2023-01-25T09:27:12.732Z,6.82
2023-01-25T09:28:14.345Z,6.85
2023-01-25T09:29:15.829Z,6.87
2023-01-25T09:30:19.060Z,6.81
2023-01-25T09:31:27.215Z,6.81
2023-01-25T09:32:44.678Z,6.84
2023-01-25T09:33:46.249Z,6.88
2023-01-25T09:34:47.704Z,6.88
2023-01-25T09:35:49.324Z,6.87
2023-01-25T09:36:50.891Z,6.84
2023-01-25T09:37:52.678Z,6.81
2023-01-25T09:38:55.058Z,6.76
2023-01-25T09:39:56.545Z,6.75
2023-01-25T09:41:12.625Z,6.76
2023-01-25T09:42:15.485Z,6.78
2023-01-25T09:43:35.874Z,6.80
2023-01-25T09:44:40.292Z,6.82
2023-01-25T09:45:41.815Z,6.85
2023-01-25T09:46:44.262Z,6.85
2023-01-25T09:47:51.478Z,6.86
2023-01-25T09:49:06.780Z,6.86
2023-01-25T09:50:12.736Z,6.83
2023-01-25T09:51:14.423Z,6.81
2023-01-25T09:52:36.335Z,6.79
2023-01-25T09:53:41.283Z,6.75
2023-01-25T09:54:47.029Z,6.78
2023-01-25T09:55:50.895Z,6.78
2023-01-25T09:56:52.358Z,6.78
2023-01-25T09:57:54.149Z,6.81
2023-01-25T09:58:59.309Z,6.79
2023-01-25T10:00:02.207Z,6.80
2023-01-25T10:01:21.654Z,6.83
2023-01-25T10:02:52.044Z,6.79
2023-01-25T10:04:04.362Z,6.74
2023-01-25T10:05:11.696Z,6.68
2023-01-25T10:06:13.231Z,6.66
2023-01-25T10:07:18.801Z,6.61
2023-01-25T10:08:20.743Z,6.61
2023-01-25T10:09:43.003Z,6.66
2023-01-25T10:10:44.578Z,6.73
2023-01-25T10:11:47.785Z,6.77
2023-01-25T10:12:49.244Z,6.79
2023-01-25T10:13:50.783Z,6.82
2023-01-25T10:14:52.345Z,6.85
2023-01-25T10:15:55.676Z,6.84
2023-01-25T10:17:08.331Z,6.79
2023-01-25T10:18:12.570Z,6.72
2023-01-25T10:19:20.817Z,6.68
2023-01-25T10:20:42.848Z,6.69
2023-01-25T10:21:45.506Z,6.69
2023-01-25T10:22:48.975Z,6.67
2023-01-25T10:23:53.137Z,6.67
2023-01-25T10:24:54.549Z,6.71
2023-01-25T10:25:59.491Z,6.72
2023-01-25T10:27:27.430Z,6.74
2023-01-25T10:28:32.010Z,6.71
2023-01-25T10:29:33.602Z,6.74
2023-01-25T10:30:44.608Z,6.75
2023-01-25T10:31:47.272Z,6.68
2023-01-25T10:32:55.955Z,6.67
2023-01-25T10:33:57.859Z,6.63
2023-01-25T10:35:00.932Z,6.62
2023-01-25T10:36:03.007Z,6.64
2023-01-25T10:37:06.695Z,6.67
2023-01-25T10:38:15.739Z,6.72
2023-01-25T10:39:17.812Z,6.73
2023-01-25T10:40:22.650Z,6.70
2023-01-25T10:41:28.746Z,6.74
2023-01-25T10:42:31.756Z,6.70
2023-01-25T10:43:33.260Z,6.72
2023-01-25T10:44:35.068Z,6.64
2023-01-25T10:45:38.183Z,6.78
2023-01-25T10:46:44.384Z,6.77
2023-01-25T10:47:48.824Z,6.79
2023-01-25T10:48:50.326Z,6.79
2023-01-25T10:49:52.599Z,6.83
2023-01-25T10:50:55.119Z,6.85
2023-01-25T10:51:57.370Z,6.88
2023-01-25T10:52:58.904Z,6.89
2023-01-25T10:54:04.536Z,6.91
2023-01-25T10:55:19.364Z,6.90
2023-01-25T10:56:22.085Z,6.87
2023-01-25T10:57:23.609Z,6.87
2023-01-25T10:58:30.723Z,6.79
2023-01-25T10:59:32.600Z,6.78
2023-01-25T11:00:40.456Z,6.81
2023-01-25T11:01:42.092Z,6.84
2023-01-25T11:02:47.208Z,6.86
2023-01-25T11:03:48.704Z,6.87
2023-01-25T11:04:50.165Z,6.85
2023-01-25T11:05:55.057Z,6.87
2023-01-25T11:06:56.809Z,6.88
2023-01-25T11:07:58.497Z,6.89
2023-01-25T11:09:00.098Z,6.87
2023-01-25T11:10:01.550Z,6.84
2023-01-25T11:11:26.187Z,6.77
2023-01-25T11:12:27.695Z,6.78
2023-01-25T11:13:29.417Z,6.83
2023-01-25T11:14:31.690Z,6.86
2023-01-25T11:15:33.200Z,6.88
2023-01-25T11:16:35.995Z,6.90
2023-01-25T11:17:37.487Z,6.94
2023-01-25T11:18:38.984Z,6.93
2023-01-25T11:19:40.754Z,6.91
2023-01-25T11:20:42.336Z,6.92
2023-01-25T11:21:51.241Z,6.95
2023-01-25T11:22:53.602Z,6.96
2023-01-25T11:24:03.658Z,6.95
2023-01-25T11:25:22.880Z,6.96
2023-01-25T11:26:24.381Z,6.93
2023-01-25T11:27:26.522Z,6.91
2023-01-25T11:28:27.947Z,6.91
2023-01-25T11:29:29.397Z,6.89
2023-01-25T11:30:30.944Z,6.86
2023-01-25T11:31:32.814Z,6.78
2023-01-25T11:32:34.383Z,6.79
2023-01-25T11:33:35.895Z,6.81
2023-01-25T11:34:37.398Z,6.84
2023-01-25T11:35:42.504Z,6.88
2023-01-25T11:36:43.987Z,6.88
2023-01-25T11:38:02.224Z,6.83
2023-01-25T11:39:09.577Z,6.88
2023-01-25T11:40:17.209Z,6.90
2023-01-25T11:41:35.056Z,6.86
2023-01-25T11:42:48.417Z,6.85
2023-01-25T11:43:56.057Z,6.86
2023-01-25T11:45:08.953Z,6.85
2023-01-25T11:46:29.336Z,6.79
2023-01-25T11:47:46.022Z,6.74
2023-01-25T11:48:54.222Z,6.74
2023-01-25T11:49:58.505Z,6.70
2023-01-25T11:51:04.888Z,6.67
2023-01-25T11:52:09.080Z,6.72
2023-01-25T11:53:13.979Z,6.72
2023-01-25T11:54:22.195Z,6.74
2023-01-25T11:55:26.156Z,6.74
2023-01-25T11:56:36.706Z,6.78
2023-01-25T11:58:01.675Z,6.83
2023-01-25T11:59:03.686Z,6.88
2023-01-25T12:00:14.320Z,6.84
2023-01-25T12:01:15.844Z,6.87
2023-01-25T12:02:17.287Z,6.91
2023-01-25T12:03:18.782Z,6.92
2023-01-25T12:04:38.759Z,6.92
2023-01-25T12:05:55.699Z,6.93
2023-01-25T12:07:03.474Z,6.92
2023-01-25T12:08:04.976Z,6.93
2023-01-25T12:09:13.928Z,6.89
2023-01-25T12:10:20.824Z,6.87
2023-01-25T12:11:27.916Z,6.88
2023-01-25T12:12:35.649Z,6.89
2023-01-25T12:13:41.245Z,6.87
2023-01-25T12:14:50.269Z,6.79
2023-01-25T12:15:51.788Z,6.76
2023-01-25T12:17:08.399Z,6.75
2023-01-25T12:18:23.169Z,6.81
2023-01-25T12:19:36.739Z,6.79
2023-01-25T12:20:41.368Z,6.83
2023-01-25T12:21:50.331Z,6.79
2023-01-25T12:23:00.974Z,6.81
2023-01-25T12:24:22.695Z,6.80
2023-01-25T12:25:28.001Z,6.72
2023-01-25T12:26:30.589Z,6.68
2023-01-25T12:27:37.895Z,6.62
2023-01-25T12:28:39.354Z,6.65
2023-01-25T12:29:40.824Z,6.64
2023-01-25T12:30:42.332Z,6.68
2023-01-25T12:31:45.729Z,6.64
2023-01-25T12:32:50.105Z,6.59
2023-01-25T12:34:03.491Z,6.60
2023-01-25T12:35:14.379Z,6.63
2023-01-25T12:36:20.371Z,6.67
2023-01-25T12:37:22.837Z,6.68
2023-01-25T12:38:50.181Z,6.61
2023-01-25T12:39:56.011Z,6.66
2023-01-25T12:41:02.601Z,6.71
2023-01-25T12:42:04.495Z,6.74
2023-01-25T12:43:05.943Z,6.75
2023-01-25T12:44:13.224Z,6.78
2023-01-25T12:45:15.883Z,6.82
2023-01-25T12:46:23.118Z,6.79
2023-01-25T12:47:37.647Z,6.81
2023-01-25T12:48:41.296Z,6.81
2023-01-25T12:49:44.141Z,6.83
2023-01-25T12:50:47.473Z,6.79
2023-01-25T12:51:48.958Z,6.82
2023-01-25T12:52:53.048Z,6.78
2023-01-25T12:53:54.632Z,6.81
2023-01-25T12:54:57.047Z,6.84
2023-01-25T12:55:58.634Z,6.87
2023-01-25T12:57:16.017Z,6.88
2023-01-25T12:58:26.413Z,6.91
2023-01-25T12:59:34.966Z,6.84
2023-01-25T13:00:54.916Z,6.81
2023-01-25T13:02:15.431Z,6.82
2023-01-25T13:03:35.832Z,6.83
2023-01-25T13:04:42.715Z,6.85
2023-01-25T13:06:06.877Z,6.84
2023-01-25T13:07:15.548Z,6.86
2023-01-25T13:08:35.747Z,6.87
2023-01-25T13:09:55.982Z,6.87
2023-01-25T13:11:04.276Z,6.86
2023-01-25T13:12:05.808Z,6.85
2023-01-25T13:13:23.487Z,6.86
2023-01-25T13:14:28.338Z,6.77
2023-01-25T13:15:39.105Z,6.87
2023-01-25T13:16:41.425Z,6.90
2023-01-25T13:17:42.960Z,6.92
2023-01-25T13:18:44.481Z,6.92
2023-01-25T13:19:45.938Z,6.94
2023-01-25T13:20:47.914Z,6.78
2023-01-25T13:21:50.193Z,6.84
2023-01-25T13:22:53.493Z,6.84
2023-01-25T13:24:27.552Z,6.86
2023-01-25T13:25:29.026Z,6.88
2023-01-25T13:26:30.513Z,6.91
2023-01-25T13:27:34.680Z,6.92
2023-01-25T13:28:42.738Z,6.94
2023-01-25T13:29:47.050Z,6.85
2023-01-25T13:30:51.947Z,6.84
2023-01-25T13:31:57.111Z,6.85
2023-01-25T13:33:01.133Z,6.89
2023-01-25T13:34:03.519Z,6.91
2023-01-25T13:35:05.857Z,6.90
2023-01-25T13:36:26.136Z,6.91
2023-01-25T13:37:31.074Z,6.88
2023-01-25T13:38:32.975Z,6.89
2023-01-25T13:39:34.440Z,6.89
2023-01-25T13:40:37.291Z,6.91
2023-01-25T13:41:41.326Z,6.93
2023-01-25T13:42:42.904Z,6.95
2023-01-25T13:43:45.291Z,6.95
2023-01-25T13:44:47.361Z,6.97
2023-01-25T13:45:49.519Z,6.97
2023-01-25T13:46:50.984Z,6.96
2023-01-25T13:47:59.663Z,6.97
2023-01-25T13:49:01.828Z,6.97
2023-01-25T13:50:21.728Z,6.93
2023-01-25T13:51:23.258Z,6.86
2023-01-25T13:52:24.949Z,6.86
2023-01-25T13:53:33.232Z,6.84
2023-01-25T13:54:37.063Z,6.84
2023-01-25T13:55:39.275Z,6.79
2023-01-25T13:56:40.781Z,6.78
2023-01-25T13:57:42.233Z,6.73
2023-01-25T13:58:48.070Z,6.74
2023-01-25T14:00:02.046Z,6.79
2023-01-25T14:01:08.130Z,6.83
2023-01-25T14:02:19.458Z,6.86
2023-01-25T14:03:28.154Z,6.87
2023-01-25T14:04:31.706Z,6.90
2023-01-25T14:05:33.182Z,6.87
2023-01-25T14:06:36.570Z,6.89
2023-01-25T14:07:38.132Z,6.89
2023-01-25T14:08:39.579Z,6.90
2023-01-25T14:09:41.886Z,6.88
2023-01-25T14:10:43.333Z,6.92
2023-01-25T14:11:53.560Z,6.92
2023-01-25T14:12:58.243Z,6.94
2023-01-25T14:14:00.942Z,6.92
2023-01-25T14:15:21.037Z,6.94
2023-01-25T14:16:22.646Z,6.93
2023-01-25T14:17:24.118Z,6.93